This is the latest recevied weather packets stored in our database for station/object F5NTS. If no packets are shown the sender has not sent any weather packets the latest 10 day(s).
| Time | Temp. | Humidity | Pressure | Rain* | Wind** | Luminosity | Snow |
|---|---|---|---|---|---|---|---|
| 1777968304 | 11.67° C | 95% | 1006.5 hPa | 0 mm | - | - | - |
| 1777965304 | 11.67° C | 95% | 1006.7 hPa | 0 mm | - | - | - |
| 1777963504 | 11.67° C | 95% | 1006.8 hPa | 0 mm | - | - | - |
| 1777961404 | 11.67° C | 95% | 1007 hPa | 0 mm | - | - | - |
| 1777960204 | 11.67° C | 95% | 1007 hPa | 0 mm | - | - | - |
| 1777953004 | 11.67° C | 95% | 1007.4 hPa | 0 mm | - | - | - |
| 1777952704 | 11.67° C | 95% | 1007.4 hPa | 0 mm | - | - | - |
| 1777951505 | 11.67° C | 95% | 1007.9 hPa | 0 mm | - | - | - |
| 1777951204 | 11.67° C | 95% | 1007.9 hPa | 0 mm | - | - | - |
| 1777949104 | 11.67° C | 95% | 1007.7 hPa | 0 mm | - | - | - |
| 1777945804 | 11.67° C | 95% | 1007.9 hPa | 0 mm | - | - | - |
| 1777943404 | 11.67° C | 95% | 1008 hPa | 0 mm | - | - | - |
| 1777943104 | 11.67° C | 95% | 1008 hPa | 0 mm | - | - | - |
| 1777935904 | 12.78° C | 94% | 1008.8 hPa | 0 mm | - | - | - |
| 1777935004 | 12.78° C | 93% | 1008.8 hPa | 0 mm | - | - | - |
| 1777933804 | 13.33° C | 93% | 1008.8 hPa | 0 mm | - | - | - |
| 1777929604 | 14.44° C | 91% | 1009 hPa | 0 mm | - | - | - |
| 1777924504 | 15° C | 88% | 1008.8 hPa | 0 mm | - | - | - |
| 1777923605 | 15° C | 87% | 1008.8 hPa | 0 mm | - | - | - |
| 1777919404 | 16.11° C | 81% | 1008 hPa | 0 mm | - | - | - |
| 1777918804 | 16.11° C | 80% | 1008 hPa | 0 mm | - | - | - |
| 1777915204 | 18.33° C | 73% | 1008.1 hPa | 0 mm | - | - | - |
| 1777914904 | 18.33° C | 72% | 1008.1 hPa | 0 mm | - | - | - |
| 1777914004 | 20° C | 70% | 1007.9 hPa | 0 mm | - | - | - |
| 1777907404 | 18.33° C | 74% | 1008.4 hPa | 0 mm | - | - | - |
* Rain latest hour (hover to see other rain measurements)
** Current wind speed in m/s (hover to see current wind gust speed)